Time;durP1;ratioP1;P1;durP2;ratioP2;P2;SDS_P1;SDS_P2;PMS_P1;PMS_P2;Temp;Humidity;BMP_temperature;BMP_pressure;BME280_temperature;BME280_humidity;BME280_pressure;Samples;Min_cycle;Max_cycle;Signal;HPM_P1;HPM_P2
2020/12/16 00:02:20;;;;;;;49.10;24.80;;;;;;;1.82;82.45;100641.52;1830131;76;21285;-61
2020/12/16 00:04:48;;;;;;;49.43;23.87;;;;;;;1.82;82.46;100640.19;1835909;76;20992;-62
2020/12/16 00:07:15;;;;;;;48.43;24.63;;;;;;;1.84;82.50;100631.34;1837092;76;21139;-60
2020/12/16 00:09:44;;;;;;;54.03;25.00;;;;;;;1.86;82.52;100639.31;1840261;76;21056;-60
2020/12/16 00:12:11;;;;;;;51.57;26.50;;;;;;;1.86;82.51;100644.63;1841826;76;21249;-61
2020/12/16 00:14:38;;;;;;;50.57;27.80;;;;;;;1.85;82.51;100642.41;1840956;76;21181;-59
2020/12/16 00:17:05;;;;;;;64.17;28.97;;;;;;;1.86;82.51;100641.97;1832031;76;21610;-58
2020/12/16 00:19:33;;;;;;;68.10;29.73;;;;;;;1.85;82.48;100638.43;1831106;76;21628;-59
2020/12/16 00:22:00;;;;;;;67.00;29.37;;;;;;;1.83;82.45;100637.53;1831962;76;21199;-57
2020/12/16 00:24:27;;;;;;;67.80;28.77;;;;;;;1.81;82.48;100643.28;1835238;76;21616;-59
2020/12/16 00:26:54;;;;;;;54.20;26.80;;;;;;;1.80;82.47;100645.48;1846110;76;21270;-59
2020/12/16 00:29:21;;;;;;;50.40;24.57;;;;;;;1.80;82.48;100642.83;1842126;76;21035;-59
2020/12/16 00:31:48;;;;;;;51.50;25.00;;;;;;;1.81;82.54;100643.72;1827841;76;21231;-59
2020/12/16 00:34:15;;;;;;;46.83;23.63;;;;;;;1.82;82.59;100641.07;1833753;76;21457;-58
2020/12/16 00:36:42;;;;;;;51.30;25.50;;;;;;;1.82;82.64;100639.75;1778509;78;21799;-58
2020/12/16 00:39:10;;;;;;;51.80;25.57;;;;;;;1.84;82.66;100638.42;1779838;78;21614;-57
2020/12/16 00:41:38;;;;;;;57.63;26.87;;;;;;;1.84;82.72;100637.09;1801988;78;21138;-58
2020/12/16 00:44:07;;;;;;;62.17;29.80;;;;;;;1.85;82.74;100630.91;1779961;78;21117;-58
2020/12/16 00:46:34;;;;;;;65.80;30.83;;;;;;;1.85;82.72;100630.91;1769535;79;21142;-59
2020/12/16 00:49:01;;;;;;;57.33;27.30;;;;;;;1.84;82.67;100637.98;1773070;79;21229;-57
2020/12/16 00:51:29;;;;;;;65.80;26.87;;;;;;;1.81;82.63;100633.10;1777187;79;21154;-57
2020/12/16 00:53:56;;;;;;;54.87;25.37;;;;;;;1.79;82.62;100637.52;1780658;79;21221;-57
2020/12/16 00:56:25;;;;;;;51.73;23.73;;;;;;;1.78;82.57;100638.42;1785691;79;21181;-57
2020/12/16 00:58:53;;;;;;;51.53;24.40;;;;;;;1.78;82.55;100633.12;1781863;79;21205;-58
2020/12/16 01:01:20;;;;;;;54.33;25.10;;;;;;;1.78;82.55;100633.12;1780139;79;22130;-57
2020/12/16 01:03:48;;;;;;;51.57;25.40;;;;;;;1.77;82.52;100625.59;1786941;79;21188;-57
2020/12/16 01:06:16;;;;;;;49.67;26.13;;;;;;;1.78;82.55;100626.48;1786824;79;21183;-59
2020/12/16 01:08:43;;;;;;;54.20;25.03;;;;;;;1.77;82.55;100626.92;1775016;79;21842;-59
2020/12/16 01:11:11;;;;;;;61.00;28.47;;;;;;;1.78;82.58;100618.52;1766369;79;21220;-57
2020/12/16 01:13:39;;;;;;;59.00;27.17;;;;;;;1.78;82.61;100618.08;1755200;79;21758;-57
2020/12/16 01:16:07;;;;;;;58.87;28.37;;;;;;;1.78;82.63;100615.42;1775837;79;21462;-57
2020/12/16 01:18:37;;;;;;;60.13;27.33;;;;;;;1.77;82.62;100610.11;1780462;79;21475;-59
2020/12/16 01:21:05;;;;;;;53.13;25.43;;;;;;;1.76;82.61;100612.31;1784432;79;21229;-57
2020/12/16 01:23:38;;;;;;;51.63;24.17;;;;;;;1.76;82.62;100609.66;1781052;79;21186;-57
2020/12/16 01:26:05;;;;;;;50.10;23.77;;;;;;;1.78;82.62;100609.23;1776294;79;22784;-59
2020/12/16 01:28:35;;;;;;;52.53;25.77;;;;;;;1.79;82.61;100606.98;1778183;79;21266;-58
2020/12/16 01:31:04;;;;;;;52.80;23.70;;;;;;;1.80;82.62;100603.45;1789508;77;21714;-59
2020/12/16 01:33:32;;;;;;;51.10;25.30;;;;;;;1.82;82.64;100602.58;1779282;78;21199;-58
2020/12/16 01:36:12;;;;;;;51.77;25.93;;;;;;;1.87;82.64;100596.81;1829369;75;26758;-57
2020/12/16 01:38:40;;;;;;;60.77;30.47;;;;;;;1.83;82.63;100595.06;1750735;80;21584;-60
2020/12/16 01:41:07;;;;;;;68.37;34.27;;;;;;;1.82;82.62;100593.73;1748622;79;21399;-59
2020/12/16 01:43:39;;;;;;;69.47;34.80;;;;;;;1.81;82.67;100591.95;1746940;79;21591;-59
2020/12/16 01:46:08;;;;;;;67.97;32.30;;;;;;;1.79;82.68;100588.41;1746667;79;21202;-57
2020/12/16 01:48:36;;;;;;;60.20;26.90;;;;;;;1.78;82.67;100589.31;1746266;79;21071;-58
2020/12/16 01:51:04;;;;;;;58.47;29.57;;;;;;;1.78;82.67;100593.30;1744556;79;21172;-57
2020/12/16 01:53:33;;;;;;;57.00;28.63;;;;;;;1.79;82.66;100590.63;1748145;79;21316;-58
2020/12/16 01:56:01;;;;;;;56.23;27.53;;;;;;;1.80;82.63;100588.85;1786410;77;21190;-58
2020/12/16 01:58:32;;;;;;;46.70;23.97;;;;;;;1.81;82.64;100585.31;1794452;77;21111;-59
2020/12/16 02:01:01;;;;;;;51.57;26.03;;;;;;;1.81;82.66;100587.97;1788178;77;21178;-59
2020/12/16 02:03:29;;;;;;;44.97;23.97;;;;;;;1.82;82.62;100584.44;1730661;80;21161;-57
2020/12/16 02:06:12;;;;;;;50.50;25.67;;;;;;;1.86;82.65;100575.60;1864259;74;26612;-58
2020/12/16 02:08:40;;;;;;;58.50;27.43;;;;;;;1.81;82.61;100580.89;1853188;75;20949;-59
2020/12/16 02:11:08;;;;;;;55.77;26.50;;;;;;;1.81;82.57;100580.01;1820373;77;21371;-58
2020/12/16 02:13:38;;;;;;;63.47;27.93;;;;;;;1.80;82.58;100580.89;1814478;77;21603;-59
2020/12/16 02:16:05;;;;;;;61.67;27.37;;;;;;;1.77;82.55;100574.27;1809788;77;21202;-59
2020/12/16 02:18:33;;;;;;;48.90;23.80;;;;;;;1.75;82.56;100580.02;1722029;79;21176;-60
2020/12/16 02:21:02;;;;;;;52.37;23.70;;;;;;;1.76;82.52;100576.48;1811369;77;21600;-60
2020/12/16 02:23:31;;;;;;;52.07;24.33;;;;;;;1.75;82.57;100576.03;1773348;78;21477;-59
2020/12/16 02:26:00;;;;;;;43.40;22.27;;;;;;;1.76;82.62;100570.73;1814385;77;21704;-59
2020/12/16 02:28:28;;;;;;;50.07;25.33;;;;;;;1.78;82.62;100568.08;1794977;78;21201;-59
2020/12/16 02:30:56;;;;;;;52.53;24.43;;;;;;;1.79;82.62;100573.80;1794134;78;21584;-60
2020/12/16 02:33:40;;;;;;;55.47;28.27;;;;;;;1.81;82.61;100571.60;1863966;75;26605;-59
2020/12/16 02:36:09;;;;;;;52.70;25.33;;;;;;;1.76;82.62;100570.73;1839860;76;21173;-60
2020/12/16 02:38:46;;;;;;;67.37;35.48;;;;;;;1.79;82.62;100575.13;1849605;75;28315;-58
2020/12/16 02:41:15;;;;;;;52.87;24.70;;;;;;;1.80;82.57;100571.59;1845755;76;21392;-58
2020/12/16 02:43:43;;;;;;;50.10;25.47;;;;;;;1.87;82.42;100572.06;1839689;76;22226;-57
2020/12/16 02:46:11;;;;;;;53.73;25.40;;;;;;;1.87;82.39;100572.92;1785270;78;21191;-57
2020/12/16 02:48:38;;;;;;;41.17;20.47;;;;;;;1.86;82.39;100576.94;1803389;78;21487;-57
2020/12/16 02:51:06;;;;;;;44.87;24.10;;;;;;;1.85;82.39;100571.17;1778733;79;21185;-57
2020/12/16 02:53:34;;;;;;;40.90;22.70;;;;;;;1.84;82.37;100572.05;1769249;79;21179;-57
2020/12/16 02:56:20;;;;;;;45.23;22.57;;;;;;;1.82;82.38;100576.03;1801105;78;22860;-57
2020/12/16 02:58:49;;;;;;;52.17;24.77;;;;;;;1.79;82.38;100574.69;1804892;78;21210;-57
2020/12/16 03:01:17;;;;;;;43.83;21.67;;;;;;;1.77;82.34;100572.95;1777037;79;21193;-57
2020/12/16 03:03:54;;;;;;;48.65;29.18;;;;;;;1.79;82.36;100568.05;1855978;75;28068;-58
2020/12/16 03:06:25;;;;;;;45.57;21.87;;;;;;;1.79;82.30;100566.73;1841647;76;21457;-56
2020/12/16 03:08:55;;;;;;;37.60;20.17;;;;;;;1.86;82.18;100569.86;1839372;76;21469;-58
2020/12/16 03:11:24;;;;;;;38.13;20.53;;;;;;;1.84;82.14;100563.66;1844019;75;22179;-57
2020/12/16 03:13:53;;;;;;;35.83;19.67;;;;;;;1.84;82.18;100572.05;1841513;76;21423;-55
2020/12/16 03:16:20;;;;;;;37.30;19.93;;;;;;;1.83;82.15;100569.84;1842994;76;21179;-56
2020/12/16 03:18:49;;;;;;;40.27;20.23;;;;;;;1.80;82.16;100565.84;1842583;76;21178;-56
2020/12/16 03:21:25;;;;;;;36.03;18.93;;;;;;;1.79;82.13;100567.17;1842895;76;21563;-60
2020/12/16 03:23:55;;;;;;;37.10;20.00;;;;;;;1.75;82.13;100573.38;1847783;76;21430;-56
2020/12/16 03:26:35;;;;;;;35.03;18.20;;;;;;;1.76;82.09;100571.17;1864741;75;27918;-57
2020/12/16 03:29:15;;;;;;;35.03;17.67;;;;;;;1.73;82.07;100564.52;1861756;75;26669;-60
2020/12/16 03:31:50;;;;;;;33.27;17.67;;;;;;;1.68;82.01;100568.95;1833600;76;21182;-59
2020/12/16 03:34:36;;;;;;;32.07;17.13;;;;;;;1.67;82.01;100572.05;1784285;78;22303;-58
2020/12/16 03:37:05;;;;;;;34.30;18.67;;;;;;;1.67;82.06;100573.82;1802471;78;21175;-59
2020/12/16 03:39:34;;;;;;;31.33;18.73;;;;;;;1.67;82.10;100565.42;1780651;79;21044;-58
2020/12/16 03:42:02;;;;;;;34.00;19.10;;;;;;;1.68;82.10;100573.83;1779407;78;20966;-59
2020/12/16 03:44:30;;;;;;;37.50;21.30;;;;;;;1.68;82.11;100575.59;1783386;78;20921;-58
2020/12/16 03:46:58;;;;;;;36.00;18.53;;;;;;;1.66;82.08;100576.91;1782359;78;22468;-61
2020/12/16 03:49:26;;;;;;;36.90;19.93;;;;;;;1.65;82.04;100579.56;1800828;78;21402;-58
2020/12/16 03:51:58;;;;;;;34.77;19.03;;;;;;;1.64;82.03;100581.77;1780192;78;21204;-57
2020/12/16 03:54:29;;;;;;;32.60;18.20;;;;;;;1.62;82.02;100587.50;1779728;78;21172;-57
2020/12/16 03:57:01;;;;;;;35.83;17.50;;;;;;;1.62;82.02;100587.50;1774118;79;21597;-60
2020/12/16 03:59:30;;;;;;;31.27;16.73;;;;;;;1.62;82.05;100585.73;1785136;78;21212;-57
2020/12/16 04:01:59;;;;;;;34.00;15.63;;;;;;;1.63;82.05;100593.27;1804146;78;21163;-58
2020/12/16 04:04:26;;;;;;;31.77;17.30;;;;;;;1.63;82.07;100589.28;1787437;78;22215;-59
2020/12/16 04:06:56;;;;;;;31.20;17.57;;;;;;;1.62;82.07;100598.12;1800827;78;21167;-58
2020/12/16 04:09:27;;;;;;;35.73;17.73;;;;;;;1.62;82.10;100595.47;1802577;77;21158;-59
2020/12/16 04:11:56;;;;;;;30.33;16.93;;;;;;;1.60;82.10;100595.49;1805459;77;21233;-58
2020/12/16 04:14:33;;;;;;;33.45;22.32;;;;;;;1.64;82.13;100583.98;1856956;75;27757;-58
2020/12/16 04:17:01;;;;;;;28.10;16.70;;;;;;;1.67;82.10;100586.65;1841555;76;21447;-58
2020/12/16 04:19:30;;;;;;;27.73;15.23;;;;;;;1.77;81.96;100588.43;1840134;76;22008;-60
2020/12/16 04:21:58;;;;;;;26.67;15.20;;;;;;;1.80;81.89;100594.16;1839235;76;21201;-56
2020/12/16 04:24:27;;;;;;;26.00;15.47;;;;;;;1.81;81.86;100591.52;1840732;76;21190;-60
2020/12/16 04:26:56;;;;;;;25.27;14.87;;;;;;;1.80;81.84;100589.73;1837149;76;21227;-59
2020/12/16 04:29:23;;;;;;;31.43;16.33;;;;;;;1.79;81.82;100598.58;1844157;76;21799;-57
2020/12/16 04:31:51;;;;;;;31.37;16.23;;;;;;;1.78;81.78;100593.30;1841356;76;21179;-59
2020/12/16 04:34:20;;;;;;;27.97;16.97;;;;;;;1.78;81.82;100601.27;1838389;76;21045;-60
2020/12/16 04:36:48;;;;;;;32.00;16.90;;;;;;;1.75;81.78;100595.94;1839445;76;21198;-57
2020/12/16 04:39:17;;;;;;;32.83;16.40;;;;;;;1.73;81.76;100597.70;1841861;76;21204;-60
2020/12/16 04:41:44;;;;;;;25.20;14.57;;;;;;;1.72;81.74;100595.92;1834486;77;21615;-57
2020/12/16 04:44:13;;;;;;;29.73;15.83;;;;;;;1.70;81.73;100595.92;1807940;77;21907;-56
2020/12/16 04:46:42;;;;;;;24.37;13.00;;;;;;;1.69;81.72;100595.95;1842839;76;21063;-58
2020/12/16 04:49:11;;;;;;;25.53;15.17;;;;;;;1.69;81.73;100599.48;1842480;76;21655;-57
2020/12/16 04:51:42;;;;;;;26.50;14.63;;;;;;;1.69;81.77;100594.62;1837402;76;21571;-59
2020/12/16 04:54:11;;;;;;;24.57;14.60;;;;;;;1.67;81.76;100602.58;1841197;76;21169;-59
2020/12/16 04:56:38;;;;;;;26.23;16.53;;;;;;;1.67;81.79;100609.65;1839362;76;21640;-56
2020/12/16 04:59:08;;;;;;;29.00;15.70;;;;;;;1.67;81.76;100614.52;1844398;76;21205;-58
2020/12/16 05:01:41;;;;;;;31.10;16.13;;;;;;;1.64;81.74;100618.48;1841984;76;21591;-58
2020/12/16 05:04:11;;;;;;;28.27;14.27;;;;;;;1.62;81.76;100619.34;1837239;76;21608;-58
2020/12/16 05:06:44;;;;;;;24.33;13.63;;;;;;;1.63;81.71;100619.80;1831550;76;21333;-59
2020/12/16 05:09:14;;;;;;;22.63;13.17;;;;;;;1.64;81.69;100617.59;1793944;77;21589;-57
2020/12/16 05:11:44;;;;;;;24.07;12.87;;;;;;;1.64;81.70;100620.25;1794606;77;21209;-58
2020/12/16 05:14:17;;;;;;;22.27;12.67;;;;;;;1.65;81.73;100610.08;1803511;77;21193;-58
2020/12/16 05:17:04;;;;;;;27.10;15.17;;;;;;;1.65;81.71;100612.30;1801080;78;21151;-56
2020/12/16 05:19:42;;;;;;;28.63;16.43;;;;;;;1.66;81.75;100611.86;1801244;78;21203;-61
2020/12/16 05:22:26;;;;;;;28.33;15.67;;;;;;;1.66;81.71;100612.74;1799564;78;21195;-59
2020/12/16 05:24:58;;;;;;;30.77;15.43;;;;;;;1.64;81.67;100600.34;1797998;78;21495;-60
2020/12/16 05:27:28;;;;;;;30.47;16.03;;;;;;;1.61;81.69;100605.23;1800434;78;21186;-57
2020/12/16 05:30:03;;;;;;;28.57;16.07;;;;;;;1.60;81.69;100602.56;1804352;78;22549;-57
2020/12/16 05:32:37;;;;;;;28.60;15.33;;;;;;;1.61;81.67;100605.23;1798535;78;21161;-59
2020/12/16 05:35:28;;;;;;;24.97;14.10;;;;;;;1.62;81.66;100600.77;1795205;78;21410;-57
2020/12/16 05:38:07;;;;;;;22.93;13.10;;;;;;;1.62;81.67;100600.77;1795693;78;21264;-58
2020/12/16 05:40:37;;;;;;;25.57;13.53;;;;;;;1.63;81.65;100598.56;1796197;78;21151;-58
2020/12/16 05:43:05;;;;;;;25.23;14.07;;;;;;;1.62;81.64;100597.68;1801338;78;21235;-59
2020/12/16 05:45:40;;;;;;;27.13;15.23;;;;;;;1.62;81.65;100594.14;1804739;78;21461;-56
2020/12/16 05:48:09;;;;;;;24.00;14.17;;;;;;;1.61;81.65;100595.94;1796120;78;21766;-57
2020/12/16 05:50:53;;;;;;;22.50;13.33;;;;;;;1.60;81.58;100586.64;1800525;78;21518;-58
2020/12/16 05:53:25;;;;;;;21.10;12.40;;;;;;;1.58;81.58;100599.91;1795575;78;21159;-59
2020/12/16 05:55:58;;;;;;;23.65;13.72;;;;;;;1.57;81.50;100597.24;1793813;78;21196;-57
2020/12/16 05:58:28;;;;;;;22.03;11.87;;;;;;;1.56;81.46;100599.45;1796820;78;21159;-58
2020/12/16 06:01:02;;;;;;;20.43;12.00;;;;;;;1.55;81.47;100604.31;1799290;78;21197;-58
2020/12/16 06:03:33;;;;;;;19.87;11.97;;;;;;;1.56;81.46;100600.78;1801841;78;21253;-57
2020/12/16 06:06:05;;;;;;;13.70;8.93;;;;;;;1.55;81.46;100602.55;1796314;78;21155;-61
2020/12/16 06:08:43;;;;;;;21.80;11.33;;;;;;;1.56;81.45;100610.95;1798283;78;21592;-59
2020/12/16 06:11:11;;;;;;;19.23;11.40;;;;;;;1.58;81.41;100612.28;1801759;78;21099;-57
2020/12/16 06:13:42;;;;;;;17.47;10.37;;;;;;;1.58;81.31;100613.61;1802883;77;22259;-58
2020/12/16 06:16:09;;;;;;;18.07;11.33;;;;;;;1.55;81.24;100613.59;1726860;79;21665;-58
2020/12/16 06:18:44;;;;;;;17.80;9.00;;;;;;;1.56;81.20;100615.38;1756424;79;21186;-58
2020/12/16 06:21:13;;;;;;;13.05;8.05;;;;;;;1.56;81.13;100617.58;1796838;77;21124;-56
2020/12/16 06:23:43;;;;;;;14.33;8.70;;;;;;;1.58;81.10;100626.44;1794141;77;21171;-57
2020/12/16 06:26:14;;;;;;;15.20;8.40;;;;;;;1.58;81.01;100622.91;1766365;79;21533;-57
2020/12/16 06:28:42;;;;;;;11.83;6.87;;;;;;;1.58;80.96;100619.80;1754515;79;21613;-59
2020/12/16 06:31:20;;;;;;;15.47;7.30;;;;;;;1.58;80.88;100618.92;1754473;79;21605;-57
2020/12/16 06:34:00;;;;;;;12.57;7.30;;;;;;;1.57;80.83;100620.69;1751951;79;21608;-57
2020/12/16 06:36:37;;;;;;;11.47;7.07;;;;;;;1.57;80.77;100619.36;1752470;79;21182;-57
2020/12/16 06:39:22;;;;;;;13.70;7.87;;;;;;;1.57;80.71;100629.09;1750934;79;21644;-58
2020/12/16 06:41:57;;;;;;;9.70;5.42;;;;;;;1.56;80.66;100629.52;1746232;79;21214;-58
2020/12/16 06:44:28;;;;;;;8.10;4.80;;;;;;;1.57;80.50;100633.06;1752355;79;21249;-58
2020/12/16 06:46:56;;;;;;;5.03;2.63;;;;;;;1.57;80.40;100631.30;1757142;79;21632;-58
2020/12/16 06:49:33;;;;;;;10.50;3.57;;;;;;;1.58;80.19;100633.52;1753962;79;21150;-57
2020/12/16 06:52:10;;;;;;;8.50;5.07;;;;;;;1.55;80.04;100629.52;1756568;79;22386;-57
2020/12/16 06:54:42;;;;;;;7.07;4.73;;;;;;;1.53;80.02;100625.09;1752939;79;21246;-59
2020/12/16 06:57:21;;;;;;;6.83;4.90;;;;;;;1.53;80.00;100632.63;1740144;80;21118;-59
2020/12/16 06:59:58;;;;;;;8.47;5.07;;;;;;;1.53;80.02;100633.52;1798010;77;21171;-58
2020/12/16 07:02:35;;;;;;;4.63;2.33;;;;;;;1.54;79.95;100636.59;1799337;77;21234;-59
2020/12/16 07:05:06;;;;;;;4.07;3.03;;;;;;;1.56;79.74;100638.81;1800097;77;21628;-62
2020/12/16 07:07:44;;;;;;;4.43;3.50;;;;;;;1.59;79.60;100637.94;1771365;77;21225;-58
2020/12/16 07:10:36;;;;;;;4.03;3.63;;;;;;;1.60;79.54;100637.95;1796419;77;21180;-58
2020/12/16 07:13:29;;;;;;;7.10;4.47;;;;;;;1.63;79.51;100637.05;1742634;80;21285;-61
2020/12/16 07:16:12;;;;;;;6.83;5.53;;;;;;;1.69;79.47;100635.31;1869652;75;26790;-60
2020/12/16 07:18:47;;;;;;;5.67;4.37;;;;;;;1.66;79.42;100634.41;1846334;76;21319;-58
2020/12/16 07:21:23;;;;;;;6.03;4.63;;;;;;;1.66;79.31;100633.97;1846450;77;21458;-57
2020/12/16 07:24:08;;;;;;;5.33;3.70;;;;;;;1.68;79.27;100632.66;1847630;76;20998;-57
2020/12/16 07:26:53;;;;;;;5.13;3.13;;;;;;;1.69;79.18;100637.97;1839426;76;21000;-56
2020/12/16 07:29:30;;;;;;;5.80;3.90;;;;;;;1.73;79.15;100634.86;1844947;76;21160;-57
2020/12/16 07:32:09;;;;;;;4.17;3.27;;;;;;;1.76;79.18;100633.11;1845472;75;21107;-58
2020/12/16 07:34:50;;;;;;;5.33;3.20;;;;;;;1.81;79.16;100634.42;1806974;78;21369;-58
2020/12/16 07:37:21;;;;;;;6.43;5.17;;;;;;;1.85;79.20;100642.41;1807641;78;21393;-61
2020/12/16 07:39:54;;;;;;;10.63;6.03;;;;;;;1.88;79.08;100634.43;1765173;79;21034;-57
2020/12/16 07:42:29;;;;;;;9.37;6.13;;;;;;;1.93;79.20;100638.88;1783797;78;22092;-58
2020/12/16 07:44:58;;;;;;;12.63;7.47;;;;;;;1.98;79.01;100638.42;1788873;78;21134;-59
2020/12/16 07:47:25;;;;;;;12.27;7.37;;;;;;;2.00;78.87;100634.89;1789001;79;22095;-57
2020/12/16 07:49:52;;;;;;;10.17;6.67;;;;;;;2.00;78.71;100637.98;1788645;79;21463;-59
2020/12/16 07:52:24;;;;;;;11.10;6.53;;;;;;;2.01;78.45;100638.00;1777974;79;21180;-58
2020/12/16 07:54:52;;;;;;;11.07;5.30;;;;;;;2.03;78.43;100639.33;1783913;79;21188;-57
2020/12/16 07:57:33;;;;;;;10.23;2.97;;;;;;;2.05;78.29;100644.17;1781235;78;22533;-58
2020/12/16 08:00:01;;;;;;;4.73;3.00;;;;;;;2.06;78.21;100642.84;1787850;78;21245;-57
2020/12/16 08:02:31;;;;;;;5.97;3.87;;;;;;;2.06;78.07;100641.52;1779032;78;21215;-57
2020/12/16 08:05:03;;;;;;;5.70;3.70;;;;;;;2.04;78.04;100641.95;1777965;79;21176;-61
2020/12/16 08:07:32;;;;;;;4.53;3.43;;;;;;;2.05;77.97;100644.17;1810217;77;21845;-58
2020/12/16 08:10:05;;;;;;;6.67;4.60;;;;;;;2.03;77.96;100640.22;1803400;77;22081;-58
2020/12/16 08:12:36;;;;;;;6.13;4.63;;;;;;;2.03;77.99;100640.66;1809997;77;22168;-58
2020/12/16 08:15:15;;;;;;;6.87;5.60;;;;;;;2.03;78.00;100644.20;1781059;78;22773;-59
2020/12/16 08:17:42;;;;;;;6.73;4.80;;;;;;;2.05;77.99;100642.41;1798857;78;21203;-62
2020/12/16 08:20:19;;;;;;;6.37;4.80;;;;;;;2.08;78.00;100640.20;1788261;78;21411;-60
2020/12/16 08:22:48;;;;;;;6.33;4.43;;;;;;;2.10;78.04;100639.33;1786286;79;21730;-57
2020/12/16 08:25:17;;;;;;;6.47;4.37;;;;;;;2.11;77.92;100637.56;1786647;79;21605;-57
2020/12/16 08:27:46;;;;;;;5.77;4.80;;;;;;;2.12;77.91;100636.67;1785019;78;21138;-56
2020/12/16 08:30:15;;;;;;;6.53;5.60;;;;;;;2.12;77.82;100640.66;1766604;79;21131;-60
2020/12/16 08:32:56;;;;;;;5.47;4.03;;;;;;;2.10;77.82;100641.09;1784285;80;21134;-56
2020/12/16 08:35:29;;;;;;;8.57;5.50;;;;;;;2.08;77.83;100643.74;1783523;79;21867;-56
2020/12/16 08:38:05;;;;;;;7.17;5.50;;;;;;;2.10;77.84;100647.73;1798755;78;21181;-56
2020/12/16 08:40:46;;;;;;;8.17;5.33;;;;;;;2.18;77.85;100634.01;1833791;76;26634;-57
2020/12/16 08:43:30;;;;;;;7.70;5.30;;;;;;;2.16;77.86;100636.66;1799801;78;21521;-59
2020/12/16 08:46:08;;;;;;;7.22;5.22;;;;;;;2.19;77.85;100630.03;1797939;78;21373;-61
2020/12/16 08:48:48;;;;;;;8.47;5.87;;;;;;;2.22;77.77;100627.35;1794734;78;21246;-59
2020/12/16 08:51:28;;;;;;;8.20;6.33;;;;;;;2.23;77.70;100631.78;1802262;78;21190;-59
2020/12/16 08:54:47;;;;;;;4.60;4.13;;;;;;;2.24;77.71;100630.90;1680270;80;21079;-57
2020/12/16 08:57:20;;;;;;;4.17;3.60;;;;;;;2.24;77.69;100633.55;1803245;78;21366;-59
2020/12/16 08:59:49;;;;;;;7.07;5.23;;;;;;;2.22;77.61;100622.48;1800505;78;21406;-57
2020/12/16 09:02:16;;;;;;;7.20;4.20;;;;;;;2.21;77.57;100632.69;1801427;78;21198;-60
2020/12/16 09:04:44;;;;;;;8.00;4.50;;;;;;;2.21;77.55;100629.56;1805097;78;21612;-58
2020/12/16 09:07:15;;;;;;;8.50;4.83;;;;;;;2.22;77.38;100628.68;1740146;79;21643;-60
2020/12/16 09:09:48;;;;;;;6.03;4.67;;;;;;;2.22;77.34;100630.01;1741441;80;21214;-60
2020/12/16 09:12:20;;;;;;;4.97;4.50;;;;;;;2.22;77.39;100632.66;1752134;80;21719;-56
2020/12/16 09:15:04;;;;;;;5.50;4.27;;;;;;;2.22;77.29;100629.12;1745274;80;21208;-61
2020/12/16 09:17:32;;;;;;;6.05;4.70;;;;;;;2.20;77.27;100626.94;1770707;79;21448;-56
2020/12/16 09:19:59;;;;;;;7.83;3.93;;;;;;;2.17;77.28;100630.91;1736129;81;21152;-60
2020/12/16 09:22:30;;;;;;;6.43;4.47;;;;;;;2.13;77.24;100628.68;1739223;80;21433;-57
2020/12/16 09:24:59;;;;;;;4.47;3.03;;;;;;;2.13;77.25;100633.11;1751738;80;21669;-59
2020/12/16 09:27:28;;;;;;;4.57;4.13;;;;;;;2.11;77.18;100629.59;1742467;80;21211;-57
2020/12/16 09:29:55;;;;;;;6.50;4.40;;;;;;;2.10;77.21;100635.34;1746597;80;21182;-59
2020/12/16 09:32:25;;;;;;;7.90;5.30;;;;;;;2.11;77.32;100631.80;1769033;79;21586;-58
2020/12/16 09:34:53;;;;;;;5.07;3.00;;;;;;;2.10;77.34;100627.37;1750848;79;22480;-58
2020/12/16 09:37:33;;;;;;;5.97;5.00;;;;;;;2.10;77.10;100629.14;1743044;80;21385;-61
2020/12/16 09:40:10;;;;;;;4.17;2.73;;;;;;;2.07;77.06;100621.16;1752623;80;21198;-58
2020/12/16 09:42:38;;;;;;;3.97;3.67;;;;;;;2.02;77.00;100617.64;1753940;79;21174;-59
2020/12/16 09:45:18;;;;;;;3.37;2.90;;;;;;;1.97;76.80;100624.26;1748621;79;21210;-57
2020/12/16 09:47:46;;;;;;;3.60;2.47;;;;;;;1.94;76.90;100618.97;1757791;79;21175;-58
2020/12/16 09:50:14;;;;;;;2.80;2.57;;;;;;;1.90;76.94;100611.43;1749655;80;21283;-59
2020/12/16 09:52:41;;;;;;;4.83;3.97;;;;;;;1.88;77.07;100611.86;1751988;79;21160;-58
2020/12/16 09:55:22;;;;;;;3.60;3.40;;;;;;;1.87;77.18;100612.75;1753668;79;21203;-57
2020/12/16 09:58:08;;;;;;;3.00;2.40;;;;;;;1.85;77.09;100609.67;1746947;79;21162;-60
2020/12/16 10:00:36;;;;;;;3.63;2.73;;;;;;;1.82;77.21;100603.02;1753304;79;21226;-59
2020/12/16 10:03:08;;;;;;;4.10;3.80;;;;;;;1.82;77.30;100604.34;1750119;80;21209;-59
2020/12/16 10:05:37;;;;;;;2.07;1.10;;;;;;;1.85;77.37;100604.36;1750231;80;21232;-60
2020/12/16 10:08:11;;;;;;;2.00;1.17;;;;;;;1.85;77.24;100600.38;1740284;80;21226;-57
2020/12/16 10:10:40;;;;;;;2.17;1.30;;;;;;;1.85;77.10;100601.70;1769122;79;21242;-58
2020/12/16 10:13:07;;;;;;;2.20;2.00;;;;;;;1.83;77.01;100596.83;1762151;79;21178;-62
2020/12/16 10:15:34;;;;;;;2.63;1.93;;;;;;;1.83;77.08;100603.02;1759890;79;22276;-58
2020/12/16 10:18:01;;;;;;;3.07;2.47;;;;;;;1.84;77.16;100602.59;1737342;80;21544;-59
2020/12/16 10:20:30;;;;;;;4.13;2.17;;;;;;;1.85;77.23;100599.05;1766757;79;21155;-59
2020/12/16 10:22:57;;;;;;;3.00;2.70;;;;;;;1.87;77.22;100598.61;1764065;79;21141;-58
2020/12/16 10:25:24;;;;;;;2.60;1.90;;;;;;;1.89;77.27;100596.38;1764477;79;21210;-62
2020/12/16 10:27:53;;;;;;;2.87;2.57;;;;;;;1.92;77.23;100595.51;1768017;79;21218;-57
2020/12/16 10:30:24;;;;;;;3.70;3.37;;;;;;;1.94;77.19;100588.88;1769475;79;21206;-58
2020/12/16 10:32:49;;;;;;;5.93;4.87;;;;;;;1.94;77.23;100589.77;1739522;80;21159;-57
2020/12/16 10:35:16;;;;;;;7.87;6.50;;;;;;;1.93;77.25;100585.33;1753978;79;21178;-61
2020/12/16 10:37:45;;;;;;;5.60;4.97;;;;;;;1.94;77.25;100587.55;1740796;79;21262;-59
2020/12/16 10:40:13;;;;;;;10.17;5.47;;;;;;;1.92;77.33;100580.91;1757929;79;23318;-59
2020/12/16 10:42:40;;;;;;;5.37;4.07;;;;;;;1.90;77.34;100578.69;1765018;79;21162;-60
2020/12/16 10:45:07;;;;;;;5.03;4.00;;;;;;;1.93;77.39;100577.37;1753500;79;21200;-59
2020/12/16 10:47:34;;;;;;;4.83;4.27;;;;;;;1.94;77.43;100573.83;1749064;79;21576;-58
2020/12/16 10:50:03;;;;;;;6.97;4.67;;;;;;;1.95;77.39;100576.05;1746973;80;21195;-59
2020/12/16 10:52:30;;;;;;;7.60;6.20;;;;;;;1.93;77.43;100573.39;1740412;80;21218;-59
2020/12/16 10:54:58;;;;;;;8.93;6.83;;;;;;;1.90;77.30;100572.05;1736386;81;21194;-58
2020/12/16 10:57:25;;;;;;;9.13;6.57;;;;;;;1.85;77.33;100565.87;1741586;80;21179;-59
2020/12/16 10:59:54;;;;;;;9.10;5.77;;;;;;;1.83;77.44;100567.62;1736872;80;21615;-59
2020/12/16 11:02:21;;;;;;;9.00;7.17;;;;;;;1.83;77.47;100571.17;1738113;80;21259;-59
2020/12/16 11:04:48;;;;;;;19.93;8.43;;;;;;;1.83;77.54;100571.17;1743751;80;21449;-58
2020/12/16 11:07:16;;;;;;;9.17;7.60;;;;;;;1.82;77.65;100567.18;1721602;80;21221;-58
2020/12/16 11:09:43;;;;;;;10.67;8.40;;;;;;;1.81;77.69;100562.75;1748559;79;21008;-57
2020/12/16 11:12:10;;;;;;;10.77;8.50;;;;;;;1.78;77.65;100561.01;1735099;80;21168;-57
2020/12/16 11:14:37;;;;;;;8.87;7.77;;;;;;;1.75;77.63;100568.07;1768653;79;21528;-57
2020/12/16 11:17:05;;;;;;;8.93;7.77;;;;;;;1.75;77.68;100565.41;1743867;80;21432;-59
2020/12/16 11:19:32;;;;;;;9.40;6.53;;;;;;;1.73;77.67;100565.85;1739310;80;21254;-58
2020/12/16 11:21:59;;;;;;;9.63;8.10;;;;;;;1.71;77.72;100557.88;1747349;80;21796;-59
2020/12/16 11:24:27;;;;;;;12.20;8.40;;;;;;;1.70;77.73;100552.13;1731082;81;21656;-61
2020/12/16 11:26:54;;;;;;;10.63;9.00;;;;;;;1.68;77.78;100555.25;1743061;80;21594;-59
2020/12/16 11:29:23;;;;;;;16.67;10.00;;;;;;;1.66;77.82;100551.70;1737418;80;21377;-58
2020/12/16 11:31:52;;;;;;;14.60;10.77;;;;;;;1.64;77.89;100556.11;1740908;80;21228;-58
2020/12/16 11:34:24;;;;;;;15.67;9.93;;;;;;;1.64;77.95;100551.25;1730050;80;21130;-59
2020/12/16 11:36:55;;;;;;;12.37;9.47;;;;;;;1.64;78.07;100560.09;1763903;79;20997;-59
2020/12/16 11:39:22;;;;;;;15.43;10.20;;;;;;;1.67;78.15;100558.78;1737681;80;21219;-60
2020/12/16 11:41:50;;;;;;;12.67;9.93;;;;;;;1.69;78.17;100554.37;1705861;81;23512;-59
2020/12/16 11:44:20;;;;;;;14.10;10.50;;;;;;;1.71;78.26;100561.86;1723466;82;21164;-63